If you wish to contribute or participate in the discussions about articles you are invited to join SKYbrary as a registered user

 Actions

Alesund/Vigra

From SKYbrary Wiki

ENAL
Airport
ICAO: ENAL
Summary
Name Alesund/Vigra
Region Europe
Territory Norway NO.gif
Location Alesund/Vigra
Serving
Coordinates 62° 33' 38.5038", 6° 6' 40.6483"
Runways
Designator Length Width Surface ROPS
7/25 2314 m7,591.864 ft 45 m147.638 ft ASP yes/yes
METAR
Observation ENAL 131220Z 13013KT 9999 VCSH SCT010 BKN040 03/M02 Q0981
Station Alesund / Vigra
Date/Time 13 December 2017 12:20:00
Wind direction 130°
Wind speed 13 kts
Lowest cloud amount scattered clouds
Temperature 3°C
Dew point
Humidity 69%
QNH 981 hPa
Weather condition in vicinity: showers


Alesund/Vigra Airport

ICAO: ENAL IATA: AES

Description

Airport serving Alesund, Norway.

Climatology

Temperate Marine climate/Oceanic climate (Köppen climate classification Cfb). Moderately cool summer and comparatively warm winter with a temperature range of only 14°C287.15 K
57.2 °F
516.87 °R
. Prevailing south-westerly winds from the Atlantic Ocean.

Maps

Terrain

Loading map...

Airport Layout

Loading map...


Accidents & Serious Incidents at or in vicinity of ENAL

None on SKYbrary